sensor_id;sensor_type;location;lat;lon;timestamp;temperature;humidity
22607;DHT22;11470;20.968;105.834;2022-07-01T00:00:39;28.20;1.00
22607;DHT22;11470;20.968;105.834;2022-07-01T00:05:44;28.20;1.00
22607;DHT22;11470;20.968;105.834;2022-07-01T00:10:49;28.30;1.00
22607;DHT22;11470;20.968;105.834;2022-07-01T00:15:54;28.30;1.00
22607;DHT22;11470;20.968;105.834;2022-07-01T00:21:00;28.40;1.00
22607;DHT22;11470;20.968;105.834;2022-07-01T00:26:08;28.50;99.90
22607;DHT22;11470;20.968;105.834;2022-07-01T00:31:14;28.70;99.90
22607;DHT22;11470;20.968;105.834;2022-07-01T00:36:18;28.70;99.90
22607;DHT22;11470;20.968;105.834;2022-07-01T00:41:28;28.60;99.90
22607;DHT22;11470;20.968;105.834;2022-07-01T00:46:33;28.60;99.90
22607;DHT22;11470;20.968;105.834;2022-07-01T00:51:41;28.70;99.90
22607;DHT22;11470;20.968;105.834;2022-07-01T00:56:47;28.80;99.90
22607;DHT22;11470;20.968;105.834;2022-07-01T01:01:53;28.80;99.90
22607;DHT22;11470;20.968;105.834;2022-07-01T01:06:59;28.90;99.90
22607;DHT22;11470;20.968;105.834;2022-07-01T01:12:06;28.90;99.90
22607;DHT22;11470;20.968;105.834;2022-07-01T01:17:12;28.90;99.90
22607;DHT22;11470;20.968;105.834;2022-07-01T01:22:18;28.90;99.90
22607;DHT22;11470;20.968;105.834;2022-07-01T01:27:24;28.90;99.90
22607;DHT22;11470;20.968;105.834;2022-07-01T01:32:30;29.00;99.90
22607;DHT22;11470;20.968;105.834;2022-07-01T01:37:35;29.20;99.90
22607;DHT22;11470;20.968;105.834;2022-07-01T01:42:42;29.20;99.90
22607;DHT22;11470;20.968;105.834;2022-07-01T01:47:47;29.20;99.90
22607;DHT22;11470;20.968;105.834;2022-07-01T01:52:53;29.40;99.90
22607;DHT22;11470;20.968;105.834;2022-07-01T01:57:58;29.50;99.90
22607;DHT22;11470;20.968;105.834;2022-07-01T02:03:04;29.50;99.90
22607;DHT22;11470;20.968;105.834;2022-07-01T02:08:10;29.50;99.90
22607;DHT22;11470;20.968;105.834;2022-07-01T02:13:16;29.50;99.90
22607;DHT22;11470;20.968;105.834;2022-07-01T02:18:21;29.60;99.90
22607;DHT22;11470;20.968;105.834;2022-07-01T02:23:27;29.80;99.90
22607;DHT22;11470;20.968;105.834;2022-07-01T02:28:34;29.90;99.90
22607;DHT22;11470;20.968;105.834;2022-07-01T02:33:40;29.90;99.90
22607;DHT22;11470;20.968;105.834;2022-07-01T02:38:45;29.70;99.90
22607;DHT22;11470;20.968;105.834;2022-07-01T02:43:50;29.70;99.90
22607;DHT22;11470;20.968;105.834;2022-07-01T02:48:56;29.80;99.90
22607;DHT22;11470;20.968;105.834;2022-07-01T02:54:02;30.00;99.90
22607;DHT22;11470;20.968;105.834;2022-07-01T02:59:09;30.20;99.90
22607;DHT22;11470;20.968;105.834;2022-07-01T03:04:15;30.40;99.90
22607;DHT22;11470;20.968;105.834;2022-07-01T03:09:20;30.40;99.90
22607;DHT22;11470;20.968;105.834;2022-07-01T03:14:26;30.30;99.90
22607;DHT22;11470;20.968;105.834;2022-07-01T03:19:31;30.40;99.90
22607;DHT22;11470;20.968;105.834;2022-07-01T03:24:36;31.00;99.90
22607;DHT22;11470;20.968;105.834;2022-07-01T03:29:42;31.20;99.90
22607;DHT22;11470;20.968;105.834;2022-07-01T03:34:51;31.20;99.90
22607;DHT22;11470;20.968;105.834;2022-07-01T03:39:56;31.70;99.90
22607;DHT22;11470;20.968;105.834;2022-07-01T03:45:02;31.80;99.90
22607;DHT22;11470;20.968;105.834;2022-07-01T03:50:08;31.80;99.90
22607;DHT22;11470;20.968;105.834;2022-07-01T03:55:13;32.20;99.90
22607;DHT22;11470;20.968;105.834;2022-07-01T04:00:19;32.70;99.90
22607;DHT22;11470;20.968;105.834;2022-07-01T04:05:25;32.40;99.90
22607;DHT22;11470;20.968;105.834;2022-07-01T04:10:32;32.30;99.90
22607;DHT22;11470;20.968;105.834;2022-07-01T04:15:38;32.30;99.90
22607;DHT22;11470;20.968;105.834;2022-07-01T04:20:44;32.10;99.90
22607;DHT22;11470;20.968;105.834;2022-07-01T04:26:09;32.10;99.90
22607;DHT22;11470;20.968;105.834;2022-07-01T04:31:37;32.20;99.90
22607;DHT22;11470;20.968;105.834;2022-07-01T04:36:43;32.40;99.90
22607;DHT22;11470;20.968;105.834;2022-07-01T04:41:49;32.40;99.90
22607;DHT22;11470;20.968;105.834;2022-07-01T04:47:06;33.00;99.90
22607;DHT22;11470;20.968;105.834;2022-07-01T04:52:11;33.70;99.90
22607;DHT22;11470;20.968;105.834;2022-07-01T04:57:19;34.50;99.90
22607;DHT22;11470;20.968;105.834;2022-07-01T05:02:24;34.40;99.90
22607;DHT22;11470;20.968;105.834;2022-07-01T05:07:30;33.80;99.90
22607;DHT22;11470;20.968;105.834;2022-07-01T05:12:36;35.00;99.90
22607;DHT22;11470;20.968;105.834;2022-07-01T05:17:41;34.00;99.90
22607;DHT22;11470;20.968;105.834;2022-07-01T05:23:06;33.20;99.90
22607;DHT22;11470;20.968;105.834;2022-07-01T05:28:15;34.50;99.90
22607;DHT22;11470;20.968;105.834;2022-07-01T05:33:21;34.20;99.90
22607;DHT22;11470;20.968;105.834;2022-07-01T05:38:30;33.50;99.90
22607;DHT22;11470;20.968;105.834;2022-07-01T05:43:36;33.30;99.90
22607;DHT22;11470;20.968;105.834;2022-07-01T05:48:42;33.30;99.90
22607;DHT22;11470;20.968;105.834;2022-07-01T05:53:47;33.40;99.90
22607;DHT22;11470;20.968;105.834;2022-07-01T05:58:53;34.00;99.90
22607;DHT22;11470;20.968;105.834;2022-07-01T06:03:59;33.90;99.90
22607;DHT22;11470;20.968;105.834;2022-07-01T06:09:06;34.20;99.90
22607;DHT22;11470;20.968;105.834;2022-07-01T06:14:13;35.20;99.90
22607;DHT22;11470;20.968;105.834;2022-07-01T06:19:19;35.40;99.90
22607;DHT22;11470;20.968;105.834;2022-07-01T06:24:24;34.70;1.00
22607;DHT22;11470;20.968;105.834;2022-07-01T06:29:30;34.20;1.00
22607;DHT22;11470;20.968;105.834;2022-07-01T06:34:37;36.10;1.00
22607;DHT22;11470;20.968;105.834;2022-07-01T06:39:43;37.40;1.00
22607;DHT22;11470;20.968;105.834;2022-07-01T06:44:49;36.60;86.40
22607;DHT22;11470;20.968;105.834;2022-07-01T06:49:54;36.40;99.90
22607;DHT22;11470;20.968;105.834;2022-07-01T06:55:06;35.90;99.90
22607;DHT22;11470;20.968;105.834;2022-07-01T07:00:12;35.10;99.90
22607;DHT22;11470;20.968;105.834;2022-07-01T07:05:18;34.60;99.90
22607;DHT22;11470;20.968;105.834;2022-07-01T07:10:24;34.00;99.90
22607;DHT22;11470;20.968;105.834;2022-07-01T07:15:30;33.40;1.00
22607;DHT22;11470;20.968;105.834;2022-07-01T07:20:36;33.20;1.00
22607;DHT22;11470;20.968;105.834;2022-07-01T07:25:41;32.80;1.00
22607;DHT22;11470;20.968;105.834;2022-07-01T07:30:47;31.90;99.90
22607;DHT22;11470;20.968;105.834;2022-07-01T07:35:52;31.70;99.90
22607;DHT22;11470;20.968;105.834;2022-07-01T07:40:58;31.90;99.90
22607;DHT22;11470;20.968;105.834;2022-07-01T07:46:11;32.50;99.90
22607;DHT22;11470;20.968;105.834;2022-07-01T07:51:17;33.30;99.90
22607;DHT22;11470;20.968;105.834;2022-07-01T07:56:29;34.10;99.90
22607;DHT22;11470;20.968;105.834;2022-07-01T08:01:34;34.10;99.90
22607;DHT22;11470;20.968;105.834;2022-07-01T08:06:40;35.90;1.00
22607;DHT22;11470;20.968;105.834;2022-07-01T08:11:46;37.50;80.90
22607;DHT22;11470;20.968;105.834;2022-07-01T08:16:51;38.70;1.00
22607;DHT22;11470;20.968;105.834;2022-07-01T08:21:57;39.20;1.00
22607;DHT22;11470;20.968;105.834;2022-07-01T08:27:02;39.50;2.50
22607;DHT22;11470;20.968;105.834;2022-07-01T08:32:08;39.40;1.00
22607;DHT22;11470;20.968;105.834;2022-07-01T08:37:14;37.70;3.20
22607;DHT22;11470;20.968;105.834;2022-07-01T08:42:20;37.10;4.00
22607;DHT22;11470;20.968;105.834;2022-07-01T08:47:25;36.70;9.60
22607;DHT22;11470;20.968;105.834;2022-07-01T08:52:32;35.60;14.00
22607;DHT22;11470;20.968;105.834;2022-07-01T08:57:37;34.60;26.30
22607;DHT22;11470;20.968;105.834;2022-07-01T09:08:06;33.40;47.80
22607;DHT22;11470;20.968;105.834;2022-07-01T09:13:13;31.70;92.90
22607;DHT22;11470;20.968;105.834;2022-07-01T09:18:18;30.20;99.90
22607;DHT22;11470;20.968;105.834;2022-07-01T09:23:25;29.50;99.90
22607;DHT22;11470;20.968;105.834;2022-07-01T09:28:36;29.20;99.90
22607;DHT22;11470;20.968;105.834;2022-07-01T09:34:08;29.30;99.90
22607;DHT22;11470;20.968;105.834;2022-07-01T09:39:14;30.00;99.90
22607;DHT22;11470;20.968;105.834;2022-07-01T09:44:56;30.70;99.90
22607;DHT22;11470;20.968;105.834;2022-07-01T09:50:07;31.20;99.90
22607;DHT22;11470;20.968;105.834;2022-07-01T09:55:13;31.60;99.90
22607;DHT22;11470;20.968;105.834;2022-07-01T10:00:19;31.80;99.90
22607;DHT22;11470;20.968;105.834;2022-07-01T10:05:26;32.10;97.70
22607;DHT22;11470;20.968;105.834;2022-07-01T10:10:48;32.20;94.10
22607;DHT22;11470;20.968;105.834;2022-07-01T10:15:55;32.20;94.40
22607;DHT22;11470;20.968;105.834;2022-07-01T10:21:04;32.00;92.80
22607;DHT22;11470;20.968;105.834;2022-07-01T10:26:10;31.80;93.40
22607;DHT22;11470;20.968;105.834;2022-07-01T10:31:36;31.80;93.00
22607;DHT22;11470;20.968;105.834;2022-07-01T10:36:44;31.80;93.30
22607;DHT22;11470;20.968;105.834;2022-07-01T10:42:00;31.80;90.50
22607;DHT22;11470;20.968;105.834;2022-07-01T10:47:22;31.70;94.00
22607;DHT22;11470;20.968;105.834;2022-07-01T10:52:28;31.60;94.30
22607;DHT22;11470;20.968;105.834;2022-07-01T10:57:38;31.60;94.30
22607;DHT22;11470;20.968;105.834;2022-07-01T11:02:44;31.50;94.30
22607;DHT22;11470;20.968;105.834;2022-07-01T11:07:49;31.30;95.50
22607;DHT22;11470;20.968;105.834;2022-07-01T11:12:56;31.10;96.50
22607;DHT22;11470;20.968;105.834;2022-07-01T11:18:02;30.80;99.20
22607;DHT22;11470;20.968;105.834;2022-07-01T11:23:07;30.60;99.60
22607;DHT22;11470;20.968;105.834;2022-07-01T11:28:13;30.50;99.90
22607;DHT22;11470;20.968;105.834;2022-07-01T11:33:19;30.40;99.90
22607;DHT22;11470;20.968;105.834;2022-07-01T11:38:26;30.30;99.90
22607;DHT22;11470;20.968;105.834;2022-07-01T11:43:52;30.20;99.90
22607;DHT22;11470;20.968;105.834;2022-07-01T11:48:58;30.10;99.90
22607;DHT22;11470;20.968;105.834;2022-07-01T11:54:03;30.10;99.90
22607;DHT22;11470;20.968;105.834;2022-07-01T11:59:08;30.10;99.90
22607;DHT22;11470;20.968;105.834;2022-07-01T12:04:15;30.10;99.90
22607;DHT22;11470;20.968;105.834;2022-07-01T12:09:21;30.10;99.90
22607;DHT22;11470;20.968;105.834;2022-07-01T12:14:31;30.00;99.90
22607;DHT22;11470;20.968;105.834;2022-07-01T12:19:39;30.00;99.90
22607;DHT22;11470;20.968;105.834;2022-07-01T12:24:47;30.00;99.90
22607;DHT22;11470;20.968;105.834;2022-07-01T12:29:55;29.90;99.90
22607;DHT22;11470;20.968;105.834;2022-07-01T12:35:03;29.80;99.90
22607;DHT22;11470;20.968;105.834;2022-07-01T12:40:24;29.80;99.90
22607;DHT22;11470;20.968;105.834;2022-07-01T12:45:32;29.70;99.90
22607;DHT22;11470;20.968;105.834;2022-07-01T12:50:40;29.70;99.90
22607;DHT22;11470;20.968;105.834;2022-07-01T12:55:56;29.80;99.90
22607;DHT22;11470;20.968;105.834;2022-07-01T13:01:02;29.80;99.90
22607;DHT22;11470;20.968;105.834;2022-07-01T13:06:08;29.80;99.90
22607;DHT22;11470;20.968;105.834;2022-07-01T13:11:14;29.70;99.90
22607;DHT22;11470;20.968;105.834;2022-07-01T13:16:20;29.80;99.90
22607;DHT22;11470;20.968;105.834;2022-07-01T13:21:26;29.90;99.90
22607;DHT22;11470;20.968;105.834;2022-07-01T13:26:31;29.90;99.90
22607;DHT22;11470;20.968;105.834;2022-07-01T13:31:37;29.90;99.90
22607;DHT22;11470;20.968;105.834;2022-07-01T13:36:43;29.90;99.90
22607;DHT22;11470;20.968;105.834;2022-07-01T13:41:50;29.90;99.90
22607;DHT22;11470;20.968;105.834;2022-07-01T13:46:56;29.90;99.90
22607;DHT22;11470;20.968;105.834;2022-07-01T13:57:51;29.80;99.90
22607;DHT22;11470;20.968;105.834;2022-07-01T14:02:57;29.80;99.90
22607;DHT22;11470;20.968;105.834;2022-07-01T14:08:02;29.90;99.90
22607;DHT22;11470;20.968;105.834;2022-07-01T14:13:08;29.90;99.90
22607;DHT22;11470;20.968;105.834;2022-07-01T14:18:14;29.90;99.90
22607;DHT22;11470;20.968;105.834;2022-07-01T14:23:19;29.80;99.90
22607;DHT22;11470;20.968;105.834;2022-07-01T14:28:25;29.80;99.90
22607;DHT22;11470;20.968;105.834;2022-07-01T14:33:34;29.70;99.90
22607;DHT22;11470;20.968;105.834;2022-07-01T14:38:41;29.60;99.90
22607;DHT22;11470;20.968;105.834;2022-07-01T14:43:46;29.60;99.90
22607;DHT22;11470;20.968;105.834;2022-07-01T14:48:52;29.60;99.90
22607;DHT22;11470;20.968;105.834;2022-07-01T14:53:58;29.50;99.90
22607;DHT22;11470;20.968;105.834;2022-07-01T14:59:03;29.50;99.90
22607;DHT22;11470;20.968;105.834;2022-07-01T15:04:12;29.60;99.90
22607;DHT22;11470;20.968;105.834;2022-07-01T15:09:18;29.50;99.90
22607;DHT22;11470;20.968;105.834;2022-07-01T15:14:26;29.50;99.90
22607;DHT22;11470;20.968;105.834;2022-07-01T15:19:32;29.40;99.90
22607;DHT22;11470;20.968;105.834;2022-07-01T15:24:38;29.40;99.90
22607;DHT22;11470;20.968;105.834;2022-07-01T15:29:44;29.50;99.90
22607;DHT22;11470;20.968;105.834;2022-07-01T15:34:49;29.50;99.90
22607;DHT22;11470;20.968;105.834;2022-07-01T15:39:55;29.50;99.90
22607;DHT22;11470;20.968;105.834;2022-07-01T15:45:06;29.50;99.90
22607;DHT22;11470;20.968;105.834;2022-07-01T15:50:13;29.50;99.90
22607;DHT22;11470;20.968;105.834;2022-07-01T15:55:19;29.40;99.90
22607;DHT22;11470;20.968;105.834;2022-07-01T16:00:28;29.40;99.90
22607;DHT22;11470;20.968;105.834;2022-07-01T16:05:36;29.50;99.90
22607;DHT22;11470;20.968;105.834;2022-07-01T16:10:51;29.50;99.90
22607;DHT22;11470;20.968;105.834;2022-07-01T16:16:01;29.40;99.90
22607;DHT22;11470;20.968;105.834;2022-07-01T16:21:15;29.40;99.90
22607;DHT22;11470;20.968;105.834;2022-07-01T16:26:25;29.40;99.90
22607;DHT22;11470;20.968;105.834;2022-07-01T16:31:31;29.30;99.90
22607;DHT22;11470;20.968;105.834;2022-07-01T16:36:38;29.20;99.90
22607;DHT22;11470;20.968;105.834;2022-07-01T16:41:51;29.10;99.90
22607;DHT22;11470;20.968;105.834;2022-07-01T16:47:01;29.00;99.90
22607;DHT22;11470;20.968;105.834;2022-07-01T16:52:10;29.00;99.90
22607;DHT22;11470;20.968;105.834;2022-07-01T16:57:21;29.00;99.90
22607;DHT22;11470;20.968;105.834;2022-07-01T17:02:31;29.00;99.90
22607;DHT22;11470;20.968;105.834;2022-07-01T17:07:39;28.90;99.90
22607;DHT22;11470;20.968;105.834;2022-07-01T17:12:46;28.80;99.90
22607;DHT22;11470;20.968;105.834;2022-07-01T17:17:51;28.80;99.90
22607;DHT22;11470;20.968;105.834;2022-07-01T17:33:17;28.80;99.90
22607;DHT22;11470;20.968;105.834;2022-07-01T17:38:24;28.80;99.90
22607;DHT22;11470;20.968;105.834;2022-07-01T17:43:32;28.80;99.90
22607;DHT22;11470;20.968;105.834;2022-07-01T17:48:39;28.70;99.90
22607;DHT22;11470;20.968;105.834;2022-07-01T17:53:46;28.70;99.90
22607;DHT22;11470;20.968;105.834;2022-07-01T17:58:57;28.60;99.90
22607;DHT22;11470;20.968;105.834;2022-07-01T18:04:06;28.60;99.90
22607;DHT22;11470;20.968;105.834;2022-07-01T18:09:12;28.50;99.90
22607;DHT22;11470;20.968;105.834;2022-07-01T18:14:35;28.50;99.90
22607;DHT22;11470;20.968;105.834;2022-07-01T18:24:56;28.40;99.90
22607;DHT22;11470;20.968;105.834;2022-07-01T18:30:08;28.40;99.90
22607;DHT22;11470;20.968;105.834;2022-07-01T18:35:15;28.40;99.90
22607;DHT22;11470;20.968;105.834;2022-07-01T18:40:21;28.40;99.90
22607;DHT22;11470;20.968;105.834;2022-07-01T18:45:27;28.30;99.90
22607;DHT22;11470;20.968;105.834;2022-07-01T18:50:33;28.30;99.90
22607;DHT22;11470;20.968;105.834;2022-07-01T18:55:38;28.30;99.90
22607;DHT22;11470;20.968;105.834;2022-07-01T19:00:43;28.30;99.90
22607;DHT22;11470;20.968;105.834;2022-07-01T19:05:48;28.30;99.90
22607;DHT22;11470;20.968;105.834;2022-07-01T19:10:54;28.30;99.90
22607;DHT22;11470;20.968;105.834;2022-07-01T19:15:59;28.30;99.90
22607;DHT22;11470;20.968;105.834;2022-07-01T19:21:05;28.20;99.90
22607;DHT22;11470;20.968;105.834;2022-07-01T19:26:10;28.20;99.90
22607;DHT22;11470;20.968;105.834;2022-07-01T19:31:15;28.30;99.90
22607;DHT22;11470;20.968;105.834;2022-07-01T19:36:20;28.30;99.90
22607;DHT22;11470;20.968;105.834;2022-07-01T19:41:26;28.30;99.90
22607;DHT22;11470;20.968;105.834;2022-07-01T19:46:33;28.20;99.90
22607;DHT22;11470;20.968;105.834;2022-07-01T19:51:39;28.20;99.90
22607;DHT22;11470;20.968;105.834;2022-07-01T19:56:43;28.10;99.90
22607;DHT22;11470;20.968;105.834;2022-07-01T20:01:50;28.20;99.90
22607;DHT22;11470;20.968;105.834;2022-07-01T20:06:55;28.10;99.90
22607;DHT22;11470;20.968;105.834;2022-07-01T20:12:03;28.20;99.90
22607;DHT22;11470;20.968;105.834;2022-07-01T20:17:09;28.10;99.90
22607;DHT22;11470;20.968;105.834;2022-07-01T20:22:18;28.10;99.90
22607;DHT22;11470;20.968;105.834;2022-07-01T20:27:23;28.10;99.90
22607;DHT22;11470;20.968;105.834;2022-07-01T20:32:29;28.00;99.90
22607;DHT22;11470;20.968;105.834;2022-07-01T20:37:34;28.00;99.90
22607;DHT22;11470;20.968;105.834;2022-07-01T20:42:40;28.00;99.90
22607;DHT22;11470;20.968;105.834;2022-07-01T20:47:46;28.00;99.90
22607;DHT22;11470;20.968;105.834;2022-07-01T20:52:51;28.00;99.90
22607;DHT22;11470;20.968;105.834;2022-07-01T20:57:56;28.00;99.90
22607;DHT22;11470;20.968;105.834;2022-07-01T21:03:02;28.00;99.90
22607;DHT22;11470;20.968;105.834;2022-07-01T21:08:08;28.10;99.90
22607;DHT22;11470;20.968;105.834;2022-07-01T21:13:13;28.10;99.90
22607;DHT22;11470;20.968;105.834;2022-07-01T21:18:18;28.00;99.90
22607;DHT22;11470;20.968;105.834;2022-07-01T21:23:23;28.00;99.90
22607;DHT22;11470;20.968;105.834;2022-07-01T21:28:28;27.90;99.90
22607;DHT22;11470;20.968;105.834;2022-07-01T21:33:34;27.90;99.90
22607;DHT22;11470;20.968;105.834;2022-07-01T21:38:42;28.00;99.90
22607;DHT22;11470;20.968;105.834;2022-07-01T21:43:51;28.00;99.90
22607;DHT22;11470;20.968;105.834;2022-07-01T21:48:56;28.00;99.90
22607;DHT22;11470;20.968;105.834;2022-07-01T21:54:02;27.90;99.90
22607;DHT22;11470;20.968;105.834;2022-07-01T21:59:11;27.90;99.90
22607;DHT22;11470;20.968;105.834;2022-07-01T22:04:19;27.80;99.90
22607;DHT22;11470;20.968;105.834;2022-07-01T22:09:30;27.80;99.90
22607;DHT22;11470;20.968;105.834;2022-07-01T22:14:50;27.80;99.90
22607;DHT22;11470;20.968;105.834;2022-07-01T22:19:57;27.80;99.90
22607;DHT22;11470;20.968;105.834;2022-07-01T22:25:08;27.80;99.90
22607;DHT22;11470;20.968;105.834;2022-07-01T22:30:13;27.80;99.90
22607;DHT22;11470;20.968;105.834;2022-07-01T22:35:21;27.80;99.90
22607;DHT22;11470;20.968;105.834;2022-07-01T22:40:27;27.90;99.90
22607;DHT22;11470;20.968;105.834;2022-07-01T22:45:50;27.90;99.90
22607;DHT22;11470;20.968;105.834;2022-07-01T22:50:57;27.90;99.90
22607;DHT22;11470;20.968;105.834;2022-07-01T22:56:15;28.00;99.90
22607;DHT22;11470;20.968;105.834;2022-07-01T23:01:27;28.10;99.90
22607;DHT22;11470;20.968;105.834;2022-07-01T23:12:02;28.00;99.90
22607;DHT22;11470;20.968;105.834;2022-07-01T23:17:10;28.10;99.90
22607;DHT22;11470;20.968;105.834;2022-07-01T23:22:19;28.20;99.90
22607;DHT22;11470;20.968;105.834;2022-07-01T23:27:25;28.30;99.90
22607;DHT22;11470;20.968;105.834;2022-07-01T23:32:31;28.40;99.90
22607;DHT22;11470;20.968;105.834;2022-07-01T23:37:37;28.40;99.90
22607;DHT22;11470;20.968;105.834;2022-07-01T23:42:42;28.40;99.90
22607;DHT22;11470;20.968;105.834;2022-07-01T23:47:48;28.50;99.90
22607;DHT22;11470;20.968;105.834;2022-07-01T23:52:53;28.50;99.90
22607;DHT22;11470;20.968;105.834;2022-07-01T23:57:58;28.60;99.90
